Time;durP1;ratioP1;P1;durP2;ratioP2;P2;SDS_P1;SDS_P2;PMS_P1;PMS_P2;Temp;Humidity;BMP_temperature;BMP_pressure;BME280_temperature;BME280_humidity;BME280_pressure;Samples;Min_cycle;Max_cycle;Signal;HPM_P1;HPM_P2
2023/03/16 00:02:05;;;;;;;0.90;0.70;;;;;;;5.73;64.54;101800.25;4972048;28;96868;-29
2023/03/16 00:04:36;;;;;;;2.40;1.38;;;;;;;5.72;64.68;101790.41;4971735;28;101047;-30
2023/03/16 00:07:01;;;;;;;0.82;0.63;;;;;;;5.73;64.54;101789.50;4973473;28;99512;-30
2023/03/16 00:09:29;;;;;;;0.40;0.40;;;;;;;5.74;64.90;101800.22;4973288;28;96672;-31
2023/03/16 00:12:01;;;;;;;1.00;0.95;;;;;;;5.73;65.02;101795.75;4971278;28;96690;-30
2023/03/16 00:14:27;;;;;;;1.67;1.33;;;;;;;5.71;65.17;101783.28;4972638;28;98009;-31
2023/03/16 00:16:52;;;;;;;0.63;0.60;;;;;;;5.68;65.13;101788.75;4972907;28;97378;-30
2023/03/16 00:19:18;;;;;;;0.70;0.68;;;;;;;5.69;64.87;101787.81;4973100;28;97306;-29
2023/03/16 00:21:43;;;;;;;1.10;0.98;;;;;;;5.73;65.00;101786.81;4972987;28;96764;-30
2023/03/16 00:24:09;;;;;;;1.45;0.85;;;;;;;5.73;65.69;101778.75;4972756;28;99306;-30
2023/03/16 00:26:34;;;;;;;1.17;1.05;;;;;;;5.72;65.02;101785.03;4972621;28;97842;-29
2023/03/16 00:29:00;;;;;;;3.72;1.38;;;;;;;5.71;66.06;101773.41;4972937;28;96666;-31
2023/03/16 00:31:25;;;;;;;2.17;1.17;;;;;;;5.71;65.62;101772.53;4971963;28;96856;-29
2023/03/16 00:33:51;;;;;;;0.75;0.75;;;;;;;5.73;65.88;101781.44;4972700;28;97861;-31
2023/03/16 00:36:16;;;;;;;3.05;1.08;;;;;;;5.73;65.87;101770.69;4971970;28;99208;-30
2023/03/16 00:38:44;;;;;;;1.60;1.10;;;;;;;5.73;66.14;101765.31;4970864;28;96755;-30
2023/03/16 00:41:13;;;;;;;0.60;0.57;;;;;;;5.73;66.53;101766.19;4972991;28;96718;-31
2023/03/16 00:43:39;;;;;;;1.33;0.88;;;;;;;5.73;66.08;101754.56;4971294;28;100951;-30
2023/03/16 00:46:07;;;;;;;0.63;0.57;;;;;;;5.70;66.47;101744.75;4971239;28;100766;-30
2023/03/16 00:48:34;;;;;;;1.60;0.70;;;;;;;5.68;66.55;101748.41;4972670;28;96608;-30
2023/03/16 00:51:05;;;;;;;0.80;0.60;;;;;;;5.71;66.80;101751.88;4971372;28;96851;-30
2023/03/16 00:53:32;;;;;;;1.63;1.30;;;;;;;5.71;67.01;101746.50;4972788;28;97942;-30
2023/03/16 00:55:58;;;;;;;2.38;1.13;;;;;;;5.69;67.03;101739.41;4972778;28;97857;-30
2023/03/16 00:58:24;;;;;;;1.13;0.98;;;;;;;5.69;67.92;101734.91;4971159;28;96636;-31
2023/03/16 01:00:50;;;;;;;6.38;1.40;;;;;;;5.69;67.68;101731.34;4972713;28;96818;-30
2023/03/16 01:03:16;;;;;;;0.65;0.65;;;;;;;5.70;67.83;101731.31;4970476;28;99452;-30
2023/03/16 01:05:41;;;;;;;0.68;0.63;;;;;;;5.70;68.08;101728.63;4972221;28;107545;-30
2023/03/16 01:08:07;;;;;;;0.47;0.47;;;;;;;5.67;68.55;101714.38;4972484;28;96626;-30
2023/03/16 01:10:36;;;;;;;3.75;1.52;;;;;;;5.71;68.24;101716.94;4971580;28;96804;-31
2023/03/16 01:13:02;;;;;;;0.63;0.60;;;;;;;5.69;68.33;101715.22;4970939;28;101105;-29
2023/03/16 01:15:29;;;;;;;0.68;0.52;;;;;;;5.73;68.16;101709.72;4970883;28;100821;-31
2023/03/16 01:17:54;;;;;;;1.92;1.20;;;;;;;5.75;68.43;101717.75;4970934;28;96573;-29
2023/03/16 01:20:20;;;;;;;0.50;0.50;;;;;;;5.74;69.31;101714.19;4972842;28;96741;-30
2023/03/16 01:22:46;;;;;;;2.22;1.35;;;;;;;5.74;68.70;101708.81;4971951;28;99545;-30
2023/03/16 01:25:12;;;;;;;0.75;0.40;;;;;;;5.77;68.57;101706.94;4971593;28;99102;-30
2023/03/16 01:27:37;;;;;;;1.90;1.30;;;;;;;5.78;68.09;101704.22;4970477;28;97527;-30
2023/03/16 01:30:04;;;;;;;1.23;0.90;;;;;;;5.80;68.92;101706.88;4972279;28;96795;-30
2023/03/16 01:32:30;;;;;;;2.33;1.15;;;;;;;5.80;68.96;101705.06;4970499;28;99070;-29
2023/03/16 01:34:56;;;;;;;2.65;1.02;;;;;;;5.81;68.28;101706.81;4971897;28;99642;-31
2023/03/16 01:37:21;;;;;;;0.95;0.65;;;;;;;5.78;69.51;101701.53;4972272;28;96609;-31
2023/03/16 01:39:48;;;;;;;3.35;1.58;;;;;;;5.79;69.28;101703.28;4971905;28;96963;-30
2023/03/16 01:42:13;;;;;;;1.17;0.80;;;;;;;5.75;69.41;101689.06;4970519;28;101186;-30
2023/03/16 01:45:00;;;;;;;1.05;0.80;;;;;;;5.77;69.99;101688.13;4972354;28;97173;-31
2023/03/16 01:47:26;;;;;;;0.80;0.52;;;;;;;5.77;70.34;101689.03;4972118;28;96714;-30
2023/03/16 01:49:54;;;;;;;1.20;1.08;;;;;;;5.78;69.83;101685.41;4975452;28;96791;-31
2023/03/16 01:52:23;;;;;;;0.63;0.40;;;;;;;5.80;70.04;101688.94;4973375;28;100817;-30
2023/03/16 01:54:53;;;;;;;0.68;0.50;;;;;;;5.79;70.32;101684.47;4973784;28;101118;-30
2023/03/16 01:57:21;;;;;;;1.70;1.20;;;;;;;5.79;70.82;101689.84;4973817;28;96775;-31
2023/03/16 01:59:50;;;;;;;0.75;0.55;;;;;;;5.78;70.20;101682.72;4973997;28;96812;-30
2023/03/16 02:02:19;;;;;;;1.15;1.02;;;;;;;5.75;71.17;101677.44;4973623;28;100469;-30
2023/03/16 02:04:55;;;;;;;0.73;0.57;;;;;;;5.72;71.84;101678.41;4973708;28;100769;-31
2023/03/16 02:07:24;;;;;;;0.45;0.43;;;;;;;5.71;72.13;101681.13;4975251;28;96637;-31
2023/03/16 02:09:52;;;;;;;0.38;0.38;;;;;;;5.69;72.75;101666.84;4974118;28;96840;-30
2023/03/16 02:12:19;;;;;;;1.80;0.95;;;;;;;5.69;72.64;101675.78;4973155;28;101033;-30
2023/03/16 02:14:45;;;;;;;0.38;0.30;;;;;;;5.68;73.24;101662.41;4973470;28;101038;-29
2023/03/16 02:17:13;;;;;;;1.30;0.80;;;;;;;5.67;73.70;101668.69;4973200;28;97228;-31
2023/03/16 02:19:59;;;;;;;1.27;0.98;;;;;;;5.65;74.42;101654.41;4973524;28;100232;-30
2023/03/16 02:22:25;;;;;;;1.23;0.75;;;;;;;5.60;75.00;101650.97;4973307;28;101011;-32
2023/03/16 02:24:52;;;;;;;0.35;0.35;;;;;;;5.59;75.74;101644.72;4973005;28;100717;-32
2023/03/16 02:27:26;;;;;;;1.50;0.50;;;;;;;5.59;74.76;101654.59;4973546;28;96618;-30
2023/03/16 02:30:12;;;;;;;2.47;1.10;;;;;;;5.58;75.59;101648.34;4973458;28;96534;-29
2023/03/16 02:32:39;;;;;;;0.30;0.28;;;;;;;5.58;75.43;101647.44;4973208;28;99698;-31
2023/03/16 02:35:06;;;;;;;1.40;1.00;;;;;;;5.57;75.99;101638.50;4973545;28;99419;-31
2023/03/16 02:37:34;;;;;;;0.80;0.30;;;;;;;5.58;75.77;101636.69;4973209;28;96594;-30
2023/03/16 02:40:08;;;;;;;1.33;0.73;;;;;;;5.57;75.54;101641.19;4973208;28;96800;-30
2023/03/16 02:42:34;;;;;;;1.45;1.05;;;;;;;5.56;75.40;101628.69;4973927;28;99296;-31
2023/03/16 02:45:00;;;;;;;0.20;0.20;;;;;;;5.56;76.44;101633.19;4974630;28;97314;-29
2023/03/16 02:47:34;;;;;;;0.77;0.70;;;;;;;5.58;77.23;101631.31;4973101;28;96603;-30
2023/03/16 02:50:05;;;;;;;0.50;0.45;;;;;;;5.57;77.12;101638.50;4973049;28;96592;-30
2023/03/16 02:52:31;;;;;;;0.80;0.57;;;;;;;5.55;77.02;101637.66;4972973;28;99043;-29
2023/03/16 02:54:56;;;;;;;0.40;0.40;;;;;;;5.53;77.50;101634.16;4972863;28;100524;-30
2023/03/16 02:57:21;;;;;;;3.40;1.10;;;;;;;5.54;77.47;101626.03;4974507;28;96535;-29
2023/03/16 02:59:47;;;;;;;0.40;0.40;;;;;;;5.52;78.60;101630.56;4974385;28;96757;-30
2023/03/16 03:02:12;;;;;;;0.70;0.60;;;;;;;5.52;77.99;101638.63;4974263;28;98165;-30
2023/03/16 03:04:37;;;;;;;0.25;0.25;;;;;;;5.48;78.99;101626.22;4973990;28;99229;-30
2023/03/16 03:07:04;;;;;;;1.08;0.73;;;;;;;5.47;77.42;101608.34;4973928;28;97092;-30
2023/03/16 03:09:31;;;;;;;1.67;0.68;;;;;;;5.48;79.02;101610.13;4974149;28;96743;-32
2023/03/16 03:11:57;;;;;;;0.65;0.52;;;;;;;5.45;79.30;101614.69;4973461;28;99328;-30
2023/03/16 03:14:24;;;;;;;1.50;0.68;;;;;;;5.44;79.53;101608.44;4972405;28;101065;-30
2023/03/16 03:16:51;;;;;;;0.95;0.85;;;;;;;5.47;78.95;101616.38;4974145;28;96664;-30
2023/03/16 03:19:16;;;;;;;0.50;0.40;;;;;;;5.45;79.63;101612.00;4972554;28;96936;-30
2023/03/16 03:21:41;;;;;;;1.17;0.75;;;;;;;5.39;79.10;101596.94;4973858;28;98018;-30
2023/03/16 03:24:08;;;;;;;2.40;1.08;;;;;;;5.42;78.88;101604.91;4974018;28;99445;-30
2023/03/16 03:26:34;;;;;;;0.95;0.80;;;;;;;5.41;79.83;101597.78;4972114;28;96828;-31
2023/03/16 03:28:59;;;;;;;0.75;0.57;;;;;;;5.43;79.96;101601.28;4972392;28;96871;-30
2023/03/16 03:31:24;;;;;;;0.63;0.40;;;;;;;5.41;80.32;101592.41;4973240;28;97274;-29
2023/03/16 03:33:49;;;;;;;0.52;0.38;;;;;;;5.40;80.42;101596.00;4973564;28;107174;-30
2023/03/16 03:36:15;;;;;;;1.90;0.80;;;;;;;5.40;80.43;101587.06;4973703;28;96513;-30
2023/03/16 03:38:40;;;;;;;0.47;0.47;;;;;;;5.45;79.50;101590.50;4973735;28;96587;-30
2023/03/16 03:41:06;;;;;;;0.82;0.60;;;;;;;5.44;79.50;101581.56;4973621;28;98009;-32
2023/03/16 03:43:32;;;;;;;1.17;0.68;;;;;;;5.46;80.97;101594.97;4973438;28;97345;-30
2023/03/16 03:45:59;;;;;;;0.75;0.63;;;;;;;5.46;80.08;101589.59;4972074;28;97107;-30
2023/03/16 03:48:25;;;;;;;1.15;0.90;;;;;;;5.48;80.19;101576.97;4973911;28;96693;-30
2023/03/16 03:50:51;;;;;;;0.90;0.70;;;;;;;5.49;79.50;101579.63;4971903;28;100854;-31
2023/03/16 03:53:16;;;;;;;1.55;0.82;;;;;;;5.46;80.43;101579.72;4973320;28;99048;-30
2023/03/16 03:55:42;;;;;;;1.27;0.65;;;;;;;5.47;80.23;101570.72;4973006;28;96560;-29
2023/03/16 03:58:07;;;;;;;1.27;1.02;;;;;;;5.49;79.88;101574.25;4971839;28;96697;-31
2023/03/16 04:00:33;;;;;;;1.02;0.80;;;;;;;5.48;80.49;101572.50;4973478;28;97372;-30
2023/03/16 04:02:58;;;;;;;0.47;0.45;;;;;;;5.52;81.02;101579.53;4973386;28;97261;-31
2023/03/16 04:05:26;;;;;;;0.82;0.47;;;;;;;5.52;80.20;101574.16;4973337;28;96619;-29
2023/03/16 04:07:56;;;;;;;1.45;0.73;;;;;;;5.53;80.04;101575.94;4971722;28;96883;-30
2023/03/16 04:10:30;;;;;;;0.75;0.60;;;;;;;5.52;81.00;101574.16;4970475;28;100637;-30
2023/03/16 04:12:55;;;;;;;1.55;0.90;;;;;;;5.51;80.72;101566.16;4971959;28;100871;-29
2023/03/16 04:15:21;;;;;;;0.98;0.85;;;;;;;5.47;81.75;101559.09;4973297;28;96533;-30
2023/03/16 04:17:47;;;;;;;1.02;0.68;;;;;;;5.52;81.38;101566.09;4972834;28;98375;-30
2023/03/16 04:20:14;;;;;;;0.55;0.50;;;;;;;5.50;81.66;101572.44;4971133;28;101705;-29
2023/03/16 04:22:41;;;;;;;0.65;0.38;;;;;;;5.49;82.29;101570.69;4971671;28;99894;-31
2023/03/16 04:25:08;;;;;;;0.82;0.68;;;;;;;5.49;82.17;101568.88;4971146;28;96890;-30
2023/03/16 04:27:35;;;;;;;0.20;0.20;;;;;;;5.49;82.17;101560.81;4971672;28;96767;-29
2023/03/16 04:30:10;;;;;;;1.20;0.50;;;;;;;5.46;82.75;101560.91;4972908;28;97967;-31
2023/03/16 04:32:35;;;;;;;1.92;0.63;;;;;;;5.50;82.50;101561.69;4972672;28;99218;-30
2023/03/16 04:35:01;;;;;;;1.50;0.82;;;;;;;5.48;82.23;101559.06;4971548;28;96765;-30
2023/03/16 04:37:26;;;;;;;0.52;0.47;;;;;;;5.45;83.22;101551.06;4973228;28;96817;-30
2023/03/16 04:39:51;;;;;;;0.43;0.30;;;;;;;5.39;84.25;101551.25;4972611;28;106020;-30
2023/03/16 04:42:17;;;;;;;0.43;0.40;;;;;;;5.40;83.94;101544.94;4972570;28;100825;-30
2023/03/16 04:44:45;;;;;;;0.75;0.43;;;;;;;5.38;84.02;101544.09;4972370;28;96565;-30
2023/03/16 04:47:13;;;;;;;2.20;1.30;;;;;;;5.36;83.37;101537.91;4971239;28;98236;-30
2023/03/16 04:49:38;;;;;;;1.75;1.08;;;;;;;5.33;84.09;101538.00;4971158;28;101013;-30
2023/03/16 04:52:05;;;;;;;3.13;0.80;;;;;;;5.31;85.57;101539.84;4972570;28;97788;-30
2023/03/16 04:54:32;;;;;;;0.57;0.50;;;;;;;5.30;86.14;101538.09;4971299;28;96681;-30
2023/03/16 04:56:58;;;;;;;2.03;0.85;;;;;;;5.26;86.24;101534.59;4971129;28;96772;-30
2023/03/16 04:59:23;;;;;;;1.60;0.90;;;;;;;5.28;85.99;101535.44;4971005;28;100984;-32
2023/03/16 05:01:49;;;;;;;0.63;0.38;;;;;;;5.25;86.87;101531.97;4973033;28;97277;-31
2023/03/16 05:04:14;;;;;;;0.88;0.52;;;;;;;5.25;86.92;101531.97;4972565;28;96877;-30
2023/03/16 05:06:40;;;;;;;2.90;1.05;;;;;;;5.27;86.24;101539.06;4972273;28;96956;-30
2023/03/16 05:09:07;;;;;;;1.55;0.68;;;;;;;5.25;88.00;101537.34;4971870;28;97883;-30
2023/03/16 05:11:33;;;;;;;2.63;0.40;;;;;;;5.22;87.82;101527.56;4970245;28;101168;-30
2023/03/16 05:13:58;;;;;;;0.60;0.50;;;;;;;5.26;87.44;101531.03;4972259;28;96510;-29
2023/03/16 05:16:24;;;;;;;0.55;0.08;;;;;;;5.22;88.01;101519.53;4970949;28;96876;-30
2023/03/16 05:18:49;;;;;;;0.43;0.30;;;;;;;5.23;88.00;101512.34;4972182;28;97913;-30
2023/03/16 05:21:15;;;;;;;0.98;0.63;;;;;;;5.23;87.55;101517.69;4971998;28;99287;-30
2023/03/16 05:23:40;;;;;;;2.55;0.50;;;;;;;5.21;87.84;101507.00;4970393;28;96581;-30
2023/03/16 05:26:06;;;;;;;0.68;0.28;;;;;;;5.29;88.16;101514.81;4972468;28;96859;-30
2023/03/16 05:28:32;;;;;;;0.20;0.13;;;;;;;5.29;88.44;101515.72;4972049;28;99182;-30
2023/03/16 05:30:57;;;;;;;0.50;0.43;;;;;;;5.27;88.02;101508.66;4972297;28;97685;-30
2023/03/16 05:33:22;;;;;;;1.95;0.30;;;;;;;5.27;88.09;101514.88;4971674;28;97720;-31
2023/03/16 05:35:49;;;;;;;1.40;0.47;;;;;;;5.31;87.59;101512.97;4972273;28;101164;-32
2023/03/16 05:38:15;;;;;;;1.63;0.63;;;;;;;5.27;88.02;101511.34;4970398;28;101019;-29
2023/03/16 05:40:41;;;;;;;0.65;0.30;;;;;;;5.26;87.97;101509.56;4971975;28;97756;-30
2023/03/16 05:43:06;;;;;;;0.73;0.45;;;;;;;5.25;88.09;101502.44;4970754;28;96676;-29
2023/03/16 05:45:32;;;;;;;0.57;0.50;;;;;;;5.27;88.92;101508.66;4972234;28;96773;-31
2023/03/16 05:47:57;;;;;;;0.47;0.25;;;;;;;5.24;88.60;101497.97;4970574;28;101028;-30
2023/03/16 05:50:23;;;;;;;0.28;0.20;;;;;;;5.28;88.92;101513.06;4972222;28;97954;-30
2023/03/16 05:52:48;;;;;;;0.10;0.10;;;;;;;5.25;89.17;101505.13;4971911;28;96717;-31
2023/03/16 05:55:16;;;;;;;0.40;0.35;;;;;;;5.25;89.59;101507.81;4972301;28;96883;-30
2023/03/16 05:57:41;;;;;;;0.55;0.40;;;;;;;5.22;89.51;101507.88;4969801;28;100687;-30
2023/03/16 06:00:14;;;;;;;0.43;0.20;;;;;;;5.17;90.10;101499.06;4971811;28;97795;-31
2023/03/16 06:02:46;;;;;;;0.73;0.43;;;;;;;5.20;89.63;101507.94;4971728;28;96481;-30
2023/03/16 06:05:11;;;;;;;3.85;0.93;;;;;;;5.21;89.61;101495.38;4971576;28;96506;-30
2023/03/16 06:07:37;;;;;;;0.82;0.40;;;;;;;5.16;89.31;101505.38;4971685;28;98815;-30
2023/03/16 06:10:03;;;;;;;0.65;0.43;;;;;;;5.16;89.87;101506.25;4971508;28;98686;-30
2023/03/16 06:12:29;;;;;;;0.88;0.68;;;;;;;5.20;89.14;101496.31;4970163;28;98908;-30
2023/03/16 06:14:55;;;;;;;0.30;0.30;;;;;;;5.17;91.27;101501.75;4972308;28;96729;-30
2023/03/16 06:17:20;;;;;;;0.20;0.20;;;;;;;5.10;91.03;101491.22;4971280;28;110284;-30
2023/03/16 06:19:45;;;;;;;0.40;0.30;;;;;;;5.15;91.45;101492.84;4971182;28;99650;-30
2023/03/16 06:22:11;;;;;;;0.40;0.22;;;;;;;5.11;90.29;101489.41;4971245;28;96543;-30
2023/03/16 06:24:36;;;;;;;2.83;1.00;;;;;;;5.14;90.42;101491.09;4971322;28;96836;-30
2023/03/16 06:27:01;;;;;;;0.52;0.50;;;;;;;5.13;91.00;101494.72;4971039;28;98954;-30
2023/03/16 06:29:27;;;;;;;0.52;0.43;;;;;;;5.16;90.12;101487.44;4971605;28;98028;-30
2023/03/16 06:31:53;;;;;;;2.30;1.17;;;;;;;5.15;90.25;101485.72;4971622;28;96474;-30
2023/03/16 06:34:19;;;;;;;0.45;0.45;;;;;;;5.17;90.18;101491.00;4972381;28;96826;-30
2023/03/16 06:36:44;;;;;;;0.75;0.68;;;;;;;5.15;90.89;101479.44;4974553;28;97445;-30
2023/03/16 06:39:09;;;;;;;0.32;0.32;;;;;;;5.18;90.75;101482.06;4974903;28;97334;-30
2023/03/16 06:41:35;;;;;;;0.60;0.35;;;;;;;5.18;90.34;101466.81;4973188;28;96586;-30
2023/03/16 06:44:01;;;;;;;0.40;0.40;;;;;;;5.19;90.11;101470.38;4974777;28;96870;-30
2023/03/16 06:46:26;;;;;;;1.33;0.80;;;;;;;5.18;90.47;101449.81;4972586;28;100875;-30
2023/03/16 06:48:52;;;;;;;0.52;0.35;;;;;;;5.23;90.63;101450.56;4974578;28;97262;-30
2023/03/16 06:51:17;;;;;;;0.68;0.50;;;;;;;5.23;89.67;101451.44;4973201;28;96584;-31
2023/03/16 06:53:43;;;;;;;2.90;0.70;;;;;;;5.25;89.62;101454.09;4974282;28;96754;-31
2023/03/16 06:56:08;;;;;;;2.40;0.60;;;;;;;5.23;90.08;101453.25;4974071;28;97402;-31
2023/03/16 06:58:33;;;;;;;1.60;0.60;;;;;;;5.25;89.94;101446.03;4973752;28;97766;-30
2023/03/16 07:01:03;;;;;;;0.63;0.50;;;;;;;5.28;89.70;101454.00;4974445;28;96492;-31
2023/03/16 07:03:28;;;;;;;0.55;0.35;;;;;;;5.29;89.94;101455.72;4973216;28;96741;-31
2023/03/16 07:05:54;;;;;;;1.17;0.57;;;;;;;5.31;89.36;101449.41;4974195;28;97501;-31
2023/03/16 07:08:19;;;;;;;0.30;0.25;;;;;;;5.33;88.83;101449.34;4973782;28;110098;-30
2023/03/16 07:10:44;;;;;;;2.55;0.73;;;;;;;5.35;88.37;101443.94;4973438;28;96755;-30
2023/03/16 07:13:10;;;;;;;0.63;0.50;;;;;;;5.39;88.83;101448.31;4973583;28;100684;-31
2023/03/16 07:15:35;;;;;;;0.30;0.28;;;;;;;5.40;88.25;101450.94;4972425;28;101089;-30
2023/03/16 07:18:01;;;;;;;0.47;0.38;;;;;;;5.40;88.50;101445.56;4972980;28;99388;-31
2023/03/16 07:20:28;;;;;;;0.57;0.40;;;;;;;5.45;88.00;101450.78;4973966;28;96501;-30
2023/03/16 07:22:54;;;;;;;0.15;0.15;;;;;;;5.49;87.96;101450.66;4972328;28;96821;-32
2023/03/16 07:25:20;;;;;;;0.55;0.22;;;;;;;5.51;87.44;101446.13;4972168;28;97370;-30
2023/03/16 07:27:46;;;;;;;0.47;0.47;;;;;;;5.59;87.15;101442.31;4973888;28;99218;-31
2023/03/16 07:30:13;;;;;;;1.63;0.80;;;;;;;5.63;86.10;101441.28;4972518;28;96867;-30
2023/03/16 07:32:42;;;;;;;1.85;0.30;;;;;;;5.64;86.48;101438.53;4972215;28;96818;-30
2023/03/16 07:35:10;;;;;;;1.08;0.68;;;;;;;5.68;86.68;101442.03;4971889;28;100906;-30
2023/03/16 07:37:36;;;;;;;0.55;0.30;;;;;;;5.71;85.79;101440.09;4973491;28;97718;-30
2023/03/16 07:40:02;;;;;;;1.30;0.50;;;;;;;5.72;85.48;101451.72;4972302;28;96600;-30
2023/03/16 07:42:28;;;;;;;0.17;0.15;;;;;;;5.77;85.50;101448.88;4972392;28;97234;-30
2023/03/16 07:44:53;;;;;;;0.70;0.57;;;;;;;5.80;85.08;101443.44;4973028;28;99048;-30
2023/03/16 07:47:18;;;;;;;3.17;1.08;;;;;;;5.85;85.20;101449.53;4972718;28;97849;-30
2023/03/16 07:49:44;;;;;;;0.28;0.20;;;;;;;5.83;84.61;101443.34;4973646;28;96490;-31
2023/03/16 07:52:12;;;;;;;2.15;0.60;;;;;;;5.87;84.32;101448.56;4974026;28;96783;-30
2023/03/16 07:54:38;;;;;;;0.25;0.17;;;;;;;5.92;83.95;101443.91;4971904;28;100602;-30
2023/03/16 07:57:04;;;;;;;0.63;0.40;;;;;;;5.91;83.46;101441.25;4972027;28;101464;-30
2023/03/16 07:59:30;;;;;;;0.47;0.20;;;;;;;5.98;83.42;101437.47;4971471;28;97313;-30
2023/03/16 08:01:56;;;;;;;0.95;0.60;;;;;;;6.04;82.68;101452.53;4973027;28;96818;-29
2023/03/16 08:04:21;;;;;;;0.10;0.10;;;;;;;6.07;81.82;101450.63;4973034;28;99427;-30
2023/03/16 08:06:46;;;;;;;0.47;0.38;;;;;;;6.11;81.32;101448.72;4972930;28;103862;-30
2023/03/16 08:09:12;;;;;;;0.15;0.10;;;;;;;6.19;81.38;101457.41;4973196;28;96647;-30
2023/03/16 08:11:37;;;;;;;0.30;0.20;;;;;;;6.24;80.80;101459.94;4972733;28;96820;-29
2023/03/16 08:14:03;;;;;;;0.38;0.30;;;;;;;6.25;79.59;101451.81;4972861;28;106057;-30
2023/03/16 08:16:28;;;;;;;0.30;0.30;;;;;;;6.28;79.59;101445.47;4973056;28;99432;-30
2023/03/16 08:18:57;;;;;;;0.40;0.30;;;;;;;6.30;79.11;101446.28;4972840;28;100620;-32
2023/03/16 08:21:22;;;;;;;0.25;0.15;;;;;;;6.33;79.26;101451.56;4973247;28;96817;-30
2023/03/16 08:23:49;;;;;;;1.75;0.90;;;;;;;6.34;79.39;101440.75;4972469;28;97381;-30
2023/03/16 08:26:18;;;;;;;0.35;0.28;;;;;;;6.33;79.11;101440.78;4972433;28;99608;-30
2023/03/16 08:28:45;;;;;;;0.90;0.52;;;;;;;6.41;79.05;101449.47;4971600;28;96777;-31
2023/03/16 08:31:12;;;;;;;0.30;0.25;;;;;;;6.45;78.08;101444.88;4971606;28;96894;-30
2023/03/16 08:33:38;;;;;;;0.47;0.30;;;;;;;6.48;77.41;101444.75;4971397;28;100904;-30
2023/03/16 08:36:08;;;;;;;0.10;0.10;;;;;;;6.55;77.31;101430.16;4972825;28;99486;-30
2023/03/16 08:38:34;;;;;;;0.57;0.40;;;;;;;6.62;77.27;101429.00;4971526;28;96960;-30
2023/03/16 08:40:59;;;;;;;0.40;0.32;;;;;;;6.68;76.87;101419.84;4973484;28;96853;-30
2023/03/16 08:43:28;;;;;;;1.67;0.65;;;;;;;6.79;76.95;101423.00;4972816;28;97932;-30
2023/03/16 08:45:54;;;;;;;2.08;0.45;;;;;;;6.87;76.03;101434.38;4971318;28;101140;-30
2023/03/16 08:48:21;;;;;;;3.60;1.08;;;;;;;6.96;75.32;101438.53;4972256;28;97189;-30
2023/03/16 08:50:46;;;;;;;0.30;0.20;;;;;;;7.00;75.00;101432.13;4971392;28;96946;-30
2023/03/16 08:53:13;;;;;;;1.30;0.73;;;;;;;7.08;74.62;101427.34;4972741;28;97467;-30
2023/03/16 08:55:40;;;;;;;0.80;0.45;;;;;;;7.15;74.29;101420.78;4972528;28;97937;-30
2023/03/16 08:58:06;;;;;;;0.68;0.40;;;;;;;7.22;74.25;101419.59;4971754;28;96609;-30
2023/03/16 09:00:32;;;;;;;0.68;0.55;;;;;;;7.27;73.72;101416.72;4971240;28;96855;-31
2023/03/16 09:02:59;;;;;;;1.38;0.68;;;;;;;7.31;73.29;101421.03;4972630;28;97384;-30
2023/03/16 09:05:25;;;;;;;1.85;0.80;;;;;;;7.35;72.46;101427.22;4971456;28;99528;-30
2023/03/16 09:07:52;;;;;;;0.65;0.40;;;;;;;7.48;73.08;101414.13;4971083;28;96689;-30
2023/03/16 09:10:18;;;;;;;0.85;0.40;;;;;;;7.67;71.73;101420.53;4972160;28;96743;-31
2023/03/16 09:12:44;;;;;;;0.10;0.03;;;;;;;7.79;70.11;101409.25;4970398;28;101416;-30
2023/03/16 09:15:12;;;;;;;0.70;0.55;;;;;;;8.03;70.93;101398.38;4970916;28;100723;-30
2023/03/16 09:17:38;;;;;;;0.50;0.30;;;;;;;8.23;69.12;101402.94;4970955;28;96592;-31
2023/03/16 09:20:08;;;;;;;1.58;0.50;;;;;;;8.39;69.00;101403.13;4972452;28;96780;-29
2023/03/16 09:22:33;;;;;;;0.30;0.20;;;;;;;8.48;68.12;101406.34;4970706;28;98869;-30
2023/03/16 09:24:58;;;;;;;1.52;0.50;;;;;;;8.69;67.96;101403.66;4971780;28;97803;-30
2023/03/16 09:27:24;;;;;;;1.70;0.80;;;;;;;8.88;67.00;101403.69;4971839;28;97506;-30
2023/03/16 09:29:51;;;;;;;0.40;0.32;;;;;;;8.99;66.24;101401.38;4972325;28;102447;-30
2023/03/16 09:32:17;;;;;;;0.95;0.40;;;;;;;9.08;64.91;101391.94;4970706;28;101431;-30
2023/03/16 09:34:43;;;;;;;0.55;0.40;;;;;;;9.23;64.25;101393.09;4971928;28;99370;-31
2023/03/16 09:37:09;;;;;;;0.95;0.30;;;;;;;9.37;64.26;101396.00;4971562;28;96486;-30
2023/03/16 09:39:34;;;;;;;0.17;0.17;;;;;;;9.50;64.11;101380.94;4972188;28;96804;-30
2023/03/16 09:42:15;;;;;;;0.43;0.32;;;;;;;9.79;63.59;101384.91;4971784;28;97975;-30
2023/03/16 09:44:50;;;;;;;0.93;0.50;;;;;;;10.05;62.47;101385.44;4972095;28;97267;-30
2023/03/16 09:47:17;;;;;;;0.40;0.30;;;;;;;10.18;62.47;101366.75;4970694;28;96621;-31
2023/03/16 09:49:47;;;;;;;0.17;0.17;;;;;;;10.23;62.78;101366.50;4970741;28;96802;-30
2023/03/16 09:52:29;;;;;;;0.38;0.25;;;;;;;10.20;63.38;101370.22;4971542;28;97899;-30
2023/03/16 09:55:09;;;;;;;0.75;0.50;;;;;;;10.03;62.32;101364.81;4970900;28;101391;-30
2023/03/16 09:57:39;;;;;;;1.15;0.63;;;;;;;9.94;62.68;101386.00;4970527;28;96651;-30
2023/03/16 10:00:15;;;;;;;0.47;0.43;;;;;;;10.03;61.95;101387.34;4970543;28;96761;-30
2023/03/16 10:02:49;;;;;;;0.63;0.43;;;;;;;10.13;62.46;101387.75;4969675;28;100902;-30
2023/03/16 10:05:19;;;;;;;0.50;0.38;;;;;;;10.21;62.99;101375.56;4970237;28;101405;-30
2023/03/16 10:08:03;;;;;;;0.55;0.30;;;;;;;10.10;61.24;101386.06;4970353;28;96694;-29
2023/03/16 10:11:02;;;;;;;0.95;0.70;;;;;;;10.08;61.87;101378.97;4974245;28;96933;-30
2023/03/16 10:14:03;;;;;;;1.50;0.57;;;;;;;10.09;60.49;101378.91;4973630;28;101218;-29
2023/03/16 10:16:37;;;;;;;0.82;0.45;;;;;;;9.98;60.68;101382.16;4974762;28;99581;-30
2023/03/16 10:19:18;;;;;;;0.05;0.05;;;;;;;10.00;60.17;101371.25;4974946;28;96597;-31
2023/03/16 10:21:45;;;;;;;4.13;0.55;;;;;;;9.98;59.78;101375.88;4975284;28;96792;-29
2023/03/16 10:24:33;;;;;;;0.47;0.25;;;;;;;9.99;60.70;101373.09;4973323;28;101006;-29
2023/03/16 10:26:59;;;;;;;1.15;0.38;;;;;;;9.95;59.29;101366.06;4974423;28;98708;-30
2023/03/16 10:29:35;;;;;;;0.57;0.30;;;;;;;10.07;59.99;101361.00;4973053;28;96615;-29
2023/03/16 10:32:11;;;;;;;0.98;0.55;;;;;;;10.23;60.07;101363.81;4973309;28;98517;-30
2023/03/16 10:34:36;;;;;;;0.17;0.17;;;;;;;10.33;60.90;101367.81;4973314;28;102182;-30
2023/03/16 10:37:03;;;;;;;2.00;0.40;;;;;;;10.30;58.66;101355.31;4974737;28;97902;-31
2023/03/16 10:39:35;;;;;;;0.17;0.13;;;;;;;10.26;57.91;101356.38;4973241;28;96705;-30
2023/03/16 10:42:01;;;;;;;;;;;;;;;10.30;57.23;101355.31;4973719;28;96611;-30
2023/03/16 10:44:28;;;;;;;0.63;0.28;;;;;;;10.31;56.83;101350.75;4974160;28;99445;-30
2023/03/16 10:47:00;;;;;;;0.80;0.10;;;;;;;10.31;56.58;101339.94;4973318;28;100739;-32
2023/03/16 10:49:28;;;;;;;0.65;0.20;;;;;;;10.32;57.10;101341.66;4973255;28;96607;-30
2023/03/16 10:51:56;;;;;;;0.60;0.40;;;;;;;10.32;55.47;101331.75;4974603;28;96801;-30
2023/03/16 10:54:32;;;;;;;0.28;0.20;;;;;;;10.39;56.88;101330.47;4972519;28;101529;-30
2023/03/16 10:56:59;;;;;;;0.38;0.15;;;;;;;10.30;55.56;101330.94;4972865;28;100773;-31
2023/03/16 10:59:32;;;;;;;2.60;0.45;;;;;;;10.35;57.83;101322.56;4973000;28;96776;-30
2023/03/16 11:01:58;;;;;;;1.38;0.40;;;;;;;10.32;56.04;101311.88;4973064;28;96910;-30
2023/03/16 11:04:24;;;;;;;0.65;0.30;;;;;;;10.27;56.06;101311.22;4972686;28;101145;-31
2023/03/16 11:06:55;;;;;;;0.63;0.40;;;;;;;10.25;56.73;101313.13;4973934;28;99825;-31
2023/03/16 11:09:31;;;;;;;0.25;0.25;;;;;;;10.29;56.51;101317.47;4973867;28;96693;-30
2023/03/16 11:11:57;;;;;;;1.17;0.30;;;;;;;10.31;57.40;101318.28;4972872;28;96733;-30
2023/03/16 11:14:27;;;;;;;0.70;0.30;;;;;;;10.30;56.06;101319.25;4972512;28;100951;-31
2023/03/16 11:16:55;;;;;;;0.20;0.10;;;;;;;10.35;56.12;101309.91;4972530;28;101004;-30
2023/03/16 11:19:30;;;;;;;2.58;0.43;;;;;;;10.36;57.08;101302.66;4973257;28;96589;-30
2023/03/16 11:22:13;;;;;;;0.38;0.30;;;;;;;10.43;56.83;101295.09;4972355;28;96842;-30
2023/03/16 11:24:51;;;;;;;0.25;0.20;;;;;;;10.53;56.86;101301.75;4972220;28;100933;-30
2023/03/16 11:27:25;;;;;;;0.95;0.57;;;;;;;10.66;56.90;101300.13;4972580;28;100832;-32
2023/03/16 11:30:04;;;;;;;0.70;0.43;;;;;;;10.73;55.80;101309.66;4974046;28;96527;-30
2023/03/16 11:32:39;;;;;;;0.60;0.40;;;;;;;10.82;55.09;101300.13;4972341;28;96829;-30
2023/03/16 11:35:18;;;;;;;0.80;0.50;;;;;;;10.90;55.23;101295.19;4973628;28;99561;-31